sensor_id;sensor_type;location;lat;lon;timestamp;P1;durP1;ratioP1;P2;durP2;ratioP2
6832;SDS011;3454;42.654;23.378;2023-11-22T00:00:49;26.17;;;15.00;;
6832;SDS011;3454;42.654;23.378;2023-11-22T00:03:15;24.87;;;14.90;;
6832;SDS011;3454;42.654;23.378;2023-11-22T00:05:41;24.37;;;14.40;;
6832;SDS011;3454;42.654;23.378;2023-11-22T00:08:06;25.50;;;14.13;;
6832;SDS011;3454;42.654;23.378;2023-11-22T00:10:32;29.47;;;14.87;;
6832;SDS011;3454;42.654;23.378;2023-11-22T00:12:58;27.23;;;14.73;;
6832;SDS011;3454;42.654;23.378;2023-11-22T00:15:23;22.93;;;14.53;;
6832;SDS011;3454;42.654;23.378;2023-11-22T00:17:49;23.27;;;14.53;;
6832;SDS011;3454;42.654;23.378;2023-11-22T00:20:14;23.13;;;14.57;;
6832;SDS011;3454;42.654;23.378;2023-11-22T00:22:42;26.30;;;15.23;;
6832;SDS011;3454;42.654;23.378;2023-11-22T00:25:10;27.10;;;14.60;;
6832;SDS011;3454;42.654;23.378;2023-11-22T00:27:38;30.20;;;15.37;;
6832;SDS011;3454;42.654;23.378;2023-11-22T00:30:04;23.60;;;12.80;;
6832;SDS011;3454;42.654;23.378;2023-11-22T00:32:30;22.23;;;13.67;;
6832;SDS011;3454;42.654;23.378;2023-11-22T00:34:55;20.60;;;13.07;;
6832;SDS011;3454;42.654;23.378;2023-11-22T00:37:21;18.47;;;12.53;;
6832;SDS011;3454;42.654;23.378;2023-11-22T00:39:46;20.87;;;13.50;;
6832;SDS011;3454;42.654;23.378;2023-11-22T00:42:12;21.97;;;13.47;;
6832;SDS011;3454;42.654;23.378;2023-11-22T00:44:37;20.40;;;14.27;;
6832;SDS011;3454;42.654;23.378;2023-11-22T00:47:03;23.73;;;13.27;;
6832;SDS011;3454;42.654;23.378;2023-11-22T00:49:29;22.67;;;14.00;;
6832;SDS011;3454;42.654;23.378;2023-11-22T00:51:54;21.87;;;12.90;;
6832;SDS011;3454;42.654;23.378;2023-11-22T00:54:20;22.70;;;13.67;;
6832;SDS011;3454;42.654;23.378;2023-11-22T00:56:45;23.47;;;12.90;;
6832;SDS011;3454;42.654;23.378;2023-11-22T00:59:11;23.03;;;13.10;;
6832;SDS011;3454;42.654;23.378;2023-11-22T01:01:37;21.70;;;13.03;;
6832;SDS011;3454;42.654;23.378;2023-11-22T01:04:03;23.33;;;13.47;;
6832;SDS011;3454;42.654;23.378;2023-11-22T01:06:30;25.03;;;13.67;;
6832;SDS011;3454;42.654;23.378;2023-11-22T01:08:57;25.07;;;14.00;;
6832;SDS011;3454;42.654;23.378;2023-11-22T01:11:23;22.93;;;12.57;;
6832;SDS011;3454;42.654;23.378;2023-11-22T01:13:48;23.47;;;12.83;;
6832;SDS011;3454;42.654;23.378;2023-11-22T01:16:15;20.10;;;12.87;;
6832;SDS011;3454;42.654;23.378;2023-11-22T01:18:41;19.23;;;13.13;;
6832;SDS011;3454;42.654;23.378;2023-11-22T01:21:08;19.40;;;12.83;;
6832;SDS011;3454;42.654;23.378;2023-11-22T01:23:33;23.63;;;13.27;;
6832;SDS011;3454;42.654;23.378;2023-11-22T01:26:00;19.67;;;12.00;;
6832;SDS011;3454;42.654;23.378;2023-11-22T01:28:28;19.73;;;12.47;;
6832;SDS011;3454;42.654;23.378;2023-11-22T01:30:54;21.70;;;13.27;;
6832;SDS011;3454;42.654;23.378;2023-11-22T01:33:20;21.17;;;12.47;;
6832;SDS011;3454;42.654;23.378;2023-11-22T01:35:46;17.13;;;11.43;;
6832;SDS011;3454;42.654;23.378;2023-11-22T01:38:11;23.23;;;13.57;;
6832;SDS011;3454;42.654;23.378;2023-11-22T01:40:43;18.87;;;12.37;;
6832;SDS011;3454;42.654;23.378;2023-11-22T01:43:18;20.17;;;12.37;;
6832;SDS011;3454;42.654;23.378;2023-11-22T01:45:44;21.43;;;11.87;;
6832;SDS011;3454;42.654;23.378;2023-11-22T01:48:11;22.90;;;12.03;;
6832;SDS011;3454;42.654;23.378;2023-11-22T01:50:37;19.67;;;12.43;;
6832;SDS011;3454;42.654;23.378;2023-11-22T01:53:05;20.53;;;12.60;;
6832;SDS011;3454;42.654;23.378;2023-11-22T01:55:31;22.50;;;12.37;;
6832;SDS011;3454;42.654;23.378;2023-11-22T01:57:57;18.17;;;12.20;;
6832;SDS011;3454;42.654;23.378;2023-11-22T02:00:24;18.97;;;12.67;;
6832;SDS011;3454;42.654;23.378;2023-11-22T02:02:51;18.60;;;12.60;;
6832;SDS011;3454;42.654;23.378;2023-11-22T02:05:16;20.20;;;12.30;;
6832;SDS011;3454;42.654;23.378;2023-11-22T02:07:43;19.83;;;12.97;;
6832;SDS011;3454;42.654;23.378;2023-11-22T02:10:08;19.00;;;12.13;;
6832;SDS011;3454;42.654;23.378;2023-11-22T02:12:35;19.77;;;13.20;;
6832;SDS011;3454;42.654;23.378;2023-11-22T02:15:01;22.40;;;13.07;;
6832;SDS011;3454;42.654;23.378;2023-11-22T02:17:28;20.57;;;12.87;;
6832;SDS011;3454;42.654;23.378;2023-11-22T02:19:54;19.47;;;12.30;;
6832;SDS011;3454;42.654;23.378;2023-11-22T02:22:19;23.60;;;12.83;;
6832;SDS011;3454;42.654;23.378;2023-11-22T02:24:45;19.73;;;12.23;;
6832;SDS011;3454;42.654;23.378;2023-11-22T02:27:10;29.80;;;13.83;;
6832;SDS011;3454;42.654;23.378;2023-11-22T02:29:36;21.30;;;12.87;;
6832;SDS011;3454;42.654;23.378;2023-11-22T02:32:01;24.10;;;12.23;;
6832;SDS011;3454;42.654;23.378;2023-11-22T02:34:27;25.37;;;12.73;;
6832;SDS011;3454;42.654;23.378;2023-11-22T02:36:53;16.60;;;12.13;;
6832;SDS011;3454;42.654;23.378;2023-11-22T02:39:18;17.17;;;11.37;;
6832;SDS011;3454;42.654;23.378;2023-11-22T02:41:44;21.00;;;12.57;;
6832;SDS011;3454;42.654;23.378;2023-11-22T02:44:09;18.23;;;12.87;;
6832;SDS011;3454;42.654;23.378;2023-11-22T02:46:36;18.77;;;12.07;;
6832;SDS011;3454;42.654;23.378;2023-11-22T02:49:01;18.77;;;11.27;;
6832;SDS011;3454;42.654;23.378;2023-11-22T02:51:27;18.07;;;11.10;;
6832;SDS011;3454;42.654;23.378;2023-11-22T02:53:53;21.43;;;12.00;;
6832;SDS011;3454;42.654;23.378;2023-11-22T02:56:19;20.50;;;12.30;;
6832;SDS011;3454;42.654;23.378;2023-11-22T02:58:44;20.03;;;11.37;;
6832;SDS011;3454;42.654;23.378;2023-11-22T03:01:11;17.53;;;12.10;;
6832;SDS011;3454;42.654;23.378;2023-11-22T03:03:36;19.23;;;11.67;;
6832;SDS011;3454;42.654;23.378;2023-11-22T03:06:02;19.03;;;10.67;;
6832;SDS011;3454;42.654;23.378;2023-11-22T03:08:27;21.63;;;11.20;;
6832;SDS011;3454;42.654;23.378;2023-11-22T03:10:53;21.37;;;11.27;;
6832;SDS011;3454;42.654;23.378;2023-11-22T03:13:19;17.47;;;11.17;;
6832;SDS011;3454;42.654;23.378;2023-11-22T03:15:44;16.97;;;10.67;;
6832;SDS011;3454;42.654;23.378;2023-11-22T03:18:10;24.37;;;11.90;;
6832;SDS011;3454;42.654;23.378;2023-11-22T03:20:43;19.13;;;12.10;;
6832;SDS011;3454;42.654;23.378;2023-11-22T03:23:10;18.13;;;11.00;;
6832;SDS011;3454;42.654;23.378;2023-11-22T03:25:35;16.83;;;11.30;;
6832;SDS011;3454;42.654;23.378;2023-11-22T03:28:01;17.53;;;12.03;;
6832;SDS011;3454;42.654;23.378;2023-11-22T03:30:27;19.73;;;12.17;;
6832;SDS011;3454;42.654;23.378;2023-11-22T03:32:52;20.83;;;11.30;;
6832;SDS011;3454;42.654;23.378;2023-11-22T03:35:19;16.73;;;10.50;;
6832;SDS011;3454;42.654;23.378;2023-11-22T03:37:44;16.23;;;11.03;;
6832;SDS011;3454;42.654;23.378;2023-11-22T03:40:10;17.63;;;11.10;;
6832;SDS011;3454;42.654;23.378;2023-11-22T03:42:36;18.07;;;10.20;;
6832;SDS011;3454;42.654;23.378;2023-11-22T03:45:04;17.17;;;10.13;;
6832;SDS011;3454;42.654;23.378;2023-11-22T03:47:30;17.43;;;10.97;;
6832;SDS011;3454;42.654;23.378;2023-11-22T03:49:57;17.07;;;10.73;;
6832;SDS011;3454;42.654;23.378;2023-11-22T03:52:24;16.23;;;10.10;;
6832;SDS011;3454;42.654;23.378;2023-11-22T03:54:50;18.47;;;10.60;;
6832;SDS011;3454;42.654;23.378;2023-11-22T03:57:16;17.57;;;10.33;;
6832;SDS011;3454;42.654;23.378;2023-11-22T03:59:42;18.50;;;10.37;;
6832;SDS011;3454;42.654;23.378;2023-11-22T04:02:08;15.47;;;10.50;;
6832;SDS011;3454;42.654;23.378;2023-11-22T04:04:34;18.03;;;10.70;;
6832;SDS011;3454;42.654;23.378;2023-11-22T04:07:00;16.00;;;10.07;;
6832;SDS011;3454;42.654;23.378;2023-11-22T04:09:25;18.80;;;10.97;;
6832;SDS011;3454;42.654;23.378;2023-11-22T04:11:51;17.37;;;10.27;;
6832;SDS011;3454;42.654;23.378;2023-11-22T04:14:16;16.57;;;10.43;;
6832;SDS011;3454;42.654;23.378;2023-11-22T04:16:45;15.43;;;10.90;;
6832;SDS011;3454;42.654;23.378;2023-11-22T04:19:10;21.00;;;11.13;;
6832;SDS011;3454;42.654;23.378;2023-11-22T04:21:36;16.03;;;10.23;;
6832;SDS011;3454;42.654;23.378;2023-11-22T04:24:01;18.33;;;11.10;;
6832;SDS011;3454;42.654;23.378;2023-11-22T04:26:27;16.20;;;10.90;;
6832;SDS011;3454;42.654;23.378;2023-11-22T04:28:52;17.60;;;10.83;;
6832;SDS011;3454;42.654;23.378;2023-11-22T04:31:18;17.97;;;11.10;;
6832;SDS011;3454;42.654;23.378;2023-11-22T04:33:43;17.17;;;10.20;;
6832;SDS011;3454;42.654;23.378;2023-11-22T04:36:09;18.60;;;10.90;;
6832;SDS011;3454;42.654;23.378;2023-11-22T04:38:35;20.80;;;11.93;;
6832;SDS011;3454;42.654;23.378;2023-11-22T04:41:00;17.93;;;11.60;;
6832;SDS011;3454;42.654;23.378;2023-11-22T04:43:26;17.03;;;11.10;;
6832;SDS011;3454;42.654;23.378;2023-11-22T04:45:52;16.17;;;10.27;;
6832;SDS011;3454;42.654;23.378;2023-11-22T04:48:17;18.70;;;10.57;;
6832;SDS011;3454;42.654;23.378;2023-11-22T04:50:43;19.33;;;10.53;;
6832;SDS011;3454;42.654;23.378;2023-11-22T04:53:10;14.73;;;10.47;;
6832;SDS011;3454;42.654;23.378;2023-11-22T04:55:35;16.83;;;10.73;;
6832;SDS011;3454;42.654;23.378;2023-11-22T04:58:01;20.10;;;10.77;;
6832;SDS011;3454;42.654;23.378;2023-11-22T05:00:26;18.20;;;9.97;;
6832;SDS011;3454;42.654;23.378;2023-11-22T05:02:52;17.33;;;11.30;;
6832;SDS011;3454;42.654;23.378;2023-11-22T05:05:19;17.07;;;10.77;;
6832;SDS011;3454;42.654;23.378;2023-11-22T05:07:45;20.47;;;11.23;;
6832;SDS011;3454;42.654;23.378;2023-11-22T05:10:10;17.77;;;12.10;;
6832;SDS011;3454;42.654;23.378;2023-11-22T05:12:36;17.87;;;11.50;;
6832;SDS011;3454;42.654;23.378;2023-11-22T05:15:02;14.73;;;10.43;;
6832;SDS011;3454;42.654;23.378;2023-11-22T05:17:28;15.67;;;9.87;;
6832;SDS011;3454;42.654;23.378;2023-11-22T05:19:53;16.30;;;11.77;;
6832;SDS011;3454;42.654;23.378;2023-11-22T05:22:19;15.17;;;10.43;;
6832;SDS011;3454;42.654;23.378;2023-11-22T05:24:44;13.97;;;10.17;;
6832;SDS011;3454;42.654;23.378;2023-11-22T05:27:10;16.10;;;11.00;;
6832;SDS011;3454;42.654;23.378;2023-11-22T05:29:35;19.67;;;11.77;;
6832;SDS011;3454;42.654;23.378;2023-11-22T05:32:01;14.70;;;11.00;;
6832;SDS011;3454;42.654;23.378;2023-11-22T05:34:28;17.93;;;11.20;;
6832;SDS011;3454;42.654;23.378;2023-11-22T05:36:54;19.13;;;11.97;;
6832;SDS011;3454;42.654;23.378;2023-11-22T05:39:20;18.53;;;11.57;;
6832;SDS011;3454;42.654;23.378;2023-11-22T05:41:47;16.87;;;10.80;;
6832;SDS011;3454;42.654;23.378;2023-11-22T05:44:13;21.40;;;10.97;;
6832;SDS011;3454;42.654;23.378;2023-11-22T05:46:39;17.97;;;11.13;;
6832;SDS011;3454;42.654;23.378;2023-11-22T05:49:05;17.20;;;10.93;;
6832;SDS011;3454;42.654;23.378;2023-11-22T05:51:30;15.07;;;10.73;;
6832;SDS011;3454;42.654;23.378;2023-11-22T05:53:56;17.53;;;11.47;;
6832;SDS011;3454;42.654;23.378;2023-11-22T05:56:21;16.90;;;11.47;;
6832;SDS011;3454;42.654;23.378;2023-11-22T05:58:47;16.73;;;10.17;;
6832;SDS011;3454;42.654;23.378;2023-11-22T06:01:13;17.83;;;11.47;;
6832;SDS011;3454;42.654;23.378;2023-11-22T06:03:39;19.80;;;11.53;;
6832;SDS011;3454;42.654;23.378;2023-11-22T06:06:04;15.93;;;10.97;;
6832;SDS011;3454;42.654;23.378;2023-11-22T06:08:31;15.93;;;10.60;;
6832;SDS011;3454;42.654;23.378;2023-11-22T06:10:56;20.53;;;11.43;;
6832;SDS011;3454;42.654;23.378;2023-11-22T06:13:25;15.67;;;11.83;;
6832;SDS011;3454;42.654;23.378;2023-11-22T06:15:51;21.53;;;12.20;;
6832;SDS011;3454;42.654;23.378;2023-11-22T06:18:17;17.47;;;11.80;;
6832;SDS011;3454;42.654;23.378;2023-11-22T06:20:44;21.30;;;12.30;;
6832;SDS011;3454;42.654;23.378;2023-11-22T06:23:17;23.43;;;13.13;;
6832;SDS011;3454;42.654;23.378;2023-11-22T06:25:43;19.70;;;11.57;;
6832;SDS011;3454;42.654;23.378;2023-11-22T06:28:09;21.40;;;12.43;;
6832;SDS011;3454;42.654;23.378;2023-11-22T06:30:34;23.00;;;14.27;;
6832;SDS011;3454;42.654;23.378;2023-11-22T06:33:01;21.47;;;12.27;;
6832;SDS011;3454;42.654;23.378;2023-11-22T06:35:26;22.20;;;12.60;;
6832;SDS011;3454;42.654;23.378;2023-11-22T06:37:52;19.70;;;12.67;;
6832;SDS011;3454;42.654;23.378;2023-11-22T06:40:18;21.00;;;12.33;;
6832;SDS011;3454;42.654;23.378;2023-11-22T06:42:46;22.10;;;12.10;;
6832;SDS011;3454;42.654;23.378;2023-11-22T06:45:12;24.53;;;12.87;;
6832;SDS011;3454;42.654;23.378;2023-11-22T06:47:41;20.13;;;12.70;;
6832;SDS011;3454;42.654;23.378;2023-11-22T06:50:10;19.60;;;12.60;;
6832;SDS011;3454;42.654;23.378;2023-11-22T06:52:37;23.03;;;13.43;;
6832;SDS011;3454;42.654;23.378;2023-11-22T06:55:04;17.33;;;11.43;;
6832;SDS011;3454;42.654;23.378;2023-11-22T06:57:30;17.73;;;11.27;;
6832;SDS011;3454;42.654;23.378;2023-11-22T06:59:56;20.67;;;12.20;;
6832;SDS011;3454;42.654;23.378;2023-11-22T07:02:22;15.60;;;10.63;;
6832;SDS011;3454;42.654;23.378;2023-11-22T07:04:48;17.60;;;10.97;;
6832;SDS011;3454;42.654;23.378;2023-11-22T07:07:13;16.30;;;11.03;;
6832;SDS011;3454;42.654;23.378;2023-11-22T07:09:43;17.43;;;12.10;;
6832;SDS011;3454;42.654;23.378;2023-11-22T07:12:09;19.53;;;11.67;;
6832;SDS011;3454;42.654;23.378;2023-11-22T07:14:35;16.87;;;10.77;;
6832;SDS011;3454;42.654;23.378;2023-11-22T07:17:01;18.93;;;11.70;;
6832;SDS011;3454;42.654;23.378;2023-11-22T07:19:27;13.60;;;10.87;;
6832;SDS011;3454;42.654;23.378;2023-11-22T07:21:53;14.53;;;11.00;;
6832;SDS011;3454;42.654;23.378;2023-11-22T07:24:19;17.70;;;11.73;;
6832;SDS011;3454;42.654;23.378;2023-11-22T07:26:44;18.17;;;11.87;;
6832;SDS011;3454;42.654;23.378;2023-11-22T07:29:10;17.07;;;12.20;;
6832;SDS011;3454;42.654;23.378;2023-11-22T07:31:37;18.63;;;11.00;;
6832;SDS011;3454;42.654;23.378;2023-11-22T07:34:04;17.43;;;11.47;;
6832;SDS011;3454;42.654;23.378;2023-11-22T07:36:31;14.40;;;10.13;;
6832;SDS011;3454;42.654;23.378;2023-11-22T07:38:57;17.07;;;10.43;;
6832;SDS011;3454;42.654;23.378;2023-11-22T07:41:24;15.80;;;10.27;;
6832;SDS011;3454;42.654;23.378;2023-11-22T07:43:51;18.20;;;11.00;;
6832;SDS011;3454;42.654;23.378;2023-11-22T07:46:17;16.10;;;11.20;;
6832;SDS011;3454;42.654;23.378;2023-11-22T07:48:44;16.57;;;11.03;;
6832;SDS011;3454;42.654;23.378;2023-11-22T07:51:13;20.50;;;11.90;;
6832;SDS011;3454;42.654;23.378;2023-11-22T07:53:41;16.20;;;11.10;;
6832;SDS011;3454;42.654;23.378;2023-11-22T07:56:08;15.77;;;10.43;;
6832;SDS011;3454;42.654;23.378;2023-11-22T07:58:35;18.03;;;10.47;;
6832;SDS011;3454;42.654;23.378;2023-11-22T08:01:02;17.00;;;11.83;;
6832;SDS011;3454;42.654;23.378;2023-11-22T08:03:31;20.50;;;11.83;;
6832;SDS011;3454;42.654;23.378;2023-11-22T08:05:56;20.00;;;12.20;;
6832;SDS011;3454;42.654;23.378;2023-11-22T08:08:22;17.90;;;11.70;;
6832;SDS011;3454;42.654;23.378;2023-11-22T08:10:48;15.77;;;11.77;;
6832;SDS011;3454;42.654;23.378;2023-11-22T08:13:16;20.47;;;12.57;;
6832;SDS011;3454;42.654;23.378;2023-11-22T08:15:44;18.60;;;11.57;;
6832;SDS011;3454;42.654;23.378;2023-11-22T08:18:12;16.97;;;11.03;;
6832;SDS011;3454;42.654;23.378;2023-11-22T08:20:38;20.23;;;11.67;;
6832;SDS011;3454;42.654;23.378;2023-11-22T08:23:03;15.37;;;11.07;;
6832;SDS011;3454;42.654;23.378;2023-11-22T08:25:31;15.17;;;10.97;;
6832;SDS011;3454;42.654;23.378;2023-11-22T08:27:57;20.47;;;11.73;;
6832;SDS011;3454;42.654;23.378;2023-11-22T08:30:22;20.70;;;11.90;;
6832;SDS011;3454;42.654;23.378;2023-11-22T08:32:48;20.30;;;10.90;;
6832;SDS011;3454;42.654;23.378;2023-11-22T08:35:18;16.83;;;11.33;;
6832;SDS011;3454;42.654;23.378;2023-11-22T08:37:47;18.97;;;11.40;;
6832;SDS011;3454;42.654;23.378;2023-11-22T08:40:13;18.90;;;11.77;;
6832;SDS011;3454;42.654;23.378;2023-11-22T08:42:45;19.37;;;11.80;;
6832;SDS011;3454;42.654;23.378;2023-11-22T08:45:11;17.90;;;11.70;;
6832;SDS011;3454;42.654;23.378;2023-11-22T08:47:37;19.07;;;11.77;;
6832;SDS011;3454;42.654;23.378;2023-11-22T08:50:08;18.17;;;11.80;;
6832;SDS011;3454;42.654;23.378;2023-11-22T08:52:39;19.40;;;13.20;;
6832;SDS011;3454;42.654;23.378;2023-11-22T08:55:07;20.13;;;12.10;;
6832;SDS011;3454;42.654;23.378;2023-11-22T08:57:37;19.83;;;12.33;;
6832;SDS011;3454;42.654;23.378;2023-11-22T09:00:03;22.17;;;13.27;;
6832;SDS011;3454;42.654;23.378;2023-11-22T09:02:35;26.63;;;14.97;;
6832;SDS011;3454;42.654;23.378;2023-11-22T09:05:02;18.27;;;11.87;;
6832;SDS011;3454;42.654;23.378;2023-11-22T09:07:32;22.40;;;12.67;;
6832;SDS011;3454;42.654;23.378;2023-11-22T09:09:58;18.13;;;11.80;;
6832;SDS011;3454;42.654;23.378;2023-11-22T09:12:24;21.70;;;10.83;;
6832;SDS011;3454;42.654;23.378;2023-11-22T09:14:52;18.70;;;11.70;;
6832;SDS011;3454;42.654;23.378;2023-11-22T09:17:18;15.73;;;11.33;;
6832;SDS011;3454;42.654;23.378;2023-11-22T09:19:46;19.50;;;11.85;;
6832;SDS011;3454;42.654;23.378;2023-11-22T09:22:12;16.53;;;11.50;;
6832;SDS011;3454;42.654;23.378;2023-11-22T09:24:38;17.93;;;11.73;;
6832;SDS011;3454;42.654;23.378;2023-11-22T09:27:03;18.47;;;13.70;;
6832;SDS011;3454;42.654;23.378;2023-11-22T09:29:30;17.90;;;12.50;;
6832;SDS011;3454;42.654;23.378;2023-11-22T09:31:58;21.63;;;13.07;;
6832;SDS011;3454;42.654;23.378;2023-11-22T09:34:26;19.27;;;14.07;;
6832;SDS011;3454;42.654;23.378;2023-11-22T09:36:51;19.70;;;14.23;;
6832;SDS011;3454;42.654;23.378;2023-11-22T09:39:17;20.67;;;14.60;;
6832;SDS011;3454;42.654;23.378;2023-11-22T09:41:46;22.77;;;13.93;;
6832;SDS011;3454;42.654;23.378;2023-11-22T09:44:12;17.43;;;13.07;;
6832;SDS011;3454;42.654;23.378;2023-11-22T09:46:37;21.43;;;14.63;;
6832;SDS011;3454;42.654;23.378;2023-11-22T09:49:05;22.70;;;15.40;;
6832;SDS011;3454;42.654;23.378;2023-11-22T09:51:33;24.90;;;14.83;;
6832;SDS011;3454;42.654;23.378;2023-11-22T09:54:06;28.80;;;18.00;;
6832;SDS011;3454;42.654;23.378;2023-11-22T09:56:35;28.87;;;18.83;;
6832;SDS011;3454;42.654;23.378;2023-11-22T09:59:03;29.37;;;15.80;;
6832;SDS011;3454;42.654;23.378;2023-11-22T10:01:29;23.23;;;15.43;;
6832;SDS011;3454;42.654;23.378;2023-11-22T10:04:04;22.13;;;14.90;;
6832;SDS011;3454;42.654;23.378;2023-11-22T10:06:33;23.57;;;15.17;;
6832;SDS011;3454;42.654;23.378;2023-11-22T10:09:03;23.37;;;14.43;;
6832;SDS011;3454;42.654;23.378;2023-11-22T10:11:34;24.83;;;15.23;;
6832;SDS011;3454;42.654;23.378;2023-11-22T10:14:03;25.93;;;15.20;;
6832;SDS011;3454;42.654;23.378;2023-11-22T10:16:30;22.17;;;15.20;;
6832;SDS011;3454;42.654;23.378;2023-11-22T10:18:55;21.03;;;14.87;;
6832;SDS011;3454;42.654;23.378;2023-11-22T10:21:29;23.30;;;14.60;;
6832;SDS011;3454;42.654;23.378;2023-11-22T10:23:57;25.30;;;13.80;;
6832;SDS011;3454;42.654;23.378;2023-11-22T10:26:27;19.97;;;15.03;;
6832;SDS011;3454;42.654;23.378;2023-11-22T10:28:54;22.20;;;14.30;;
6832;SDS011;3454;42.654;23.378;2023-11-22T10:31:21;20.90;;;14.97;;
6832;SDS011;3454;42.654;23.378;2023-11-22T10:33:48;22.23;;;14.83;;
6832;SDS011;3454;42.654;23.378;2023-11-22T10:36:14;22.60;;;14.63;;
6832;SDS011;3454;42.654;23.378;2023-11-22T10:38:41;23.30;;;14.57;;
6832;SDS011;3454;42.654;23.378;2023-11-22T10:41:11;22.80;;;15.57;;
6832;SDS011;3454;42.654;23.378;2023-11-22T10:43:38;22.20;;;15.53;;
6832;SDS011;3454;42.654;23.378;2023-11-22T10:46:05;22.83;;;14.47;;
6832;SDS011;3454;42.654;23.378;2023-11-22T10:48:31;23.00;;;13.77;;
6832;SDS011;3454;42.654;23.378;2023-11-22T10:51:00;21.57;;;14.83;;
6832;SDS011;3454;42.654;23.378;2023-11-22T10:53:31;39.80;;;26.97;;
6832;SDS011;3454;42.654;23.378;2023-11-22T10:56:03;29.52;;;20.10;;
6832;SDS011;3454;42.654;23.378;2023-11-22T10:58:56;29.17;;;20.23;;
6832;SDS011;3454;42.654;23.378;2023-11-22T11:01:26;29.40;;;18.00;;
6832;SDS011;3454;42.654;23.378;2023-11-22T11:04:09;25.15;;;16.23;;
6832;SDS011;3454;42.654;23.378;2023-11-22T11:06:42;26.70;;;17.13;;
6832;SDS011;3454;42.654;23.378;2023-11-22T11:09:12;25.33;;;16.87;;
6832;SDS011;3454;42.654;23.378;2023-11-22T11:11:40;24.93;;;16.00;;
6832;SDS011;3454;42.654;23.378;2023-11-22T11:14:06;22.80;;;16.40;;
6832;SDS011;3454;42.654;23.378;2023-11-22T11:16:36;29.60;;;19.17;;
6832;SDS011;3454;42.654;23.378;2023-11-22T11:19:06;32.37;;;20.33;;
6832;SDS011;3454;42.654;23.378;2023-11-22T11:21:35;32.60;;;18.47;;
6832;SDS011;3454;42.654;23.378;2023-11-22T11:24:00;34.83;;;16.47;;
6832;SDS011;3454;42.654;23.378;2023-11-22T11:26:28;28.30;;;16.70;;
6832;SDS011;3454;42.654;23.378;2023-11-22T11:29:00;25.93;;;16.53;;
6832;SDS011;3454;42.654;23.378;2023-11-22T11:31:32;24.40;;;16.10;;
6832;SDS011;3454;42.654;23.378;2023-11-22T11:34:02;23.73;;;16.13;;
6832;SDS011;3454;42.654;23.378;2023-11-22T11:36:31;25.40;;;16.97;;
6832;SDS011;3454;42.654;23.378;2023-11-22T11:39:02;30.07;;;16.80;;
6832;SDS011;3454;42.654;23.378;2023-11-22T11:41:33;23.80;;;16.87;;
6832;SDS011;3454;42.654;23.378;2023-11-22T11:44:02;27.10;;;18.40;;
6832;SDS011;3454;42.654;23.378;2023-11-22T11:46:29;33.10;;;18.90;;
6832;SDS011;3454;42.654;23.378;2023-11-22T11:48:56;29.13;;;17.97;;
6832;SDS011;3454;42.654;23.378;2023-11-22T11:51:25;38.20;;;23.97;;
6832;SDS011;3454;42.654;23.378;2023-11-22T11:53:52;28.70;;;18.50;;
6832;SDS011;3454;42.654;23.378;2023-11-22T11:56:19;27.53;;;17.40;;
6832;SDS011;3454;42.654;23.378;2023-11-22T11:58:45;25.70;;;17.73;;
6832;SDS011;3454;42.654;23.378;2023-11-22T12:01:13;26.67;;;17.03;;
6832;SDS011;3454;42.654;23.378;2023-11-22T12:03:41;23.43;;;16.73;;
6832;SDS011;3454;42.654;23.378;2023-11-22T12:06:07;31.70;;;19.33;;
6832;SDS011;3454;42.654;23.378;2023-11-22T12:08:33;29.33;;;19.83;;
6832;SDS011;3454;42.654;23.378;2023-11-22T12:11:04;25.67;;;18.57;;
6832;SDS011;3454;42.654;23.378;2023-11-22T12:13:33;27.03;;;18.13;;
6832;SDS011;3454;42.654;23.378;2023-11-22T12:16:00;25.77;;;17.23;;
6832;SDS011;3454;42.654;23.378;2023-11-22T12:18:29;23.57;;;16.70;;
6832;SDS011;3454;42.654;23.378;2023-11-22T12:20:57;81.13;;;47.03;;
6832;SDS011;3454;42.654;23.378;2023-11-22T12:23:23;41.30;;;26.90;;
6832;SDS011;3454;42.654;23.378;2023-11-22T12:25:55;22.60;;;15.03;;
6832;SDS011;3454;42.654;23.378;2023-11-22T12:28:28;46.23;;;29.87;;
6832;SDS011;3454;42.654;23.378;2023-11-22T12:30:54;20.13;;;14.33;;
6832;SDS011;3454;42.654;23.378;2023-11-22T12:33:20;20.90;;;14.83;;
6832;SDS011;3454;42.654;23.378;2023-11-22T12:35:46;22.33;;;14.40;;
6832;SDS011;3454;42.654;23.378;2023-11-22T12:38:14;22.27;;;14.13;;
6832;SDS011;3454;42.654;23.378;2023-11-22T12:40:45;18.27;;;13.07;;
6832;SDS011;3454;42.654;23.378;2023-11-22T12:43:12;17.93;;;13.90;;
6832;SDS011;3454;42.654;23.378;2023-11-22T12:45:41;25.80;;;16.00;;
6832;SDS011;3454;42.654;23.378;2023-11-22T12:48:20;22.23;;;14.47;;
6832;SDS011;3454;42.654;23.378;2023-11-22T12:50:48;33.33;;;18.50;;
6832;SDS011;3454;42.654;23.378;2023-11-22T12:53:14;25.83;;;14.83;;
6832;SDS011;3454;42.654;23.378;2023-11-22T12:58:11;32.70;;;18.97;;
6832;SDS011;3454;42.654;23.378;2023-11-22T13:00:37;22.83;;;18.00;;
6832;SDS011;3454;42.654;23.378;2023-11-22T13:03:08;28.27;;;17.90;;
6832;SDS011;3454;42.654;23.378;2023-11-22T13:05:36;28.40;;;16.83;;
6832;SDS011;3454;42.654;23.378;2023-11-22T13:08:02;23.83;;;15.30;;
6832;SDS011;3454;42.654;23.378;2023-11-22T13:10:29;21.80;;;15.40;;
6832;SDS011;3454;42.654;23.378;2023-11-22T13:12:55;24.50;;;16.60;;
6832;SDS011;3454;42.654;23.378;2023-11-22T13:15:21;26.73;;;17.50;;
6832;SDS011;3454;42.654;23.378;2023-11-22T13:17:54;22.27;;;14.30;;
6832;SDS011;3454;42.654;23.378;2023-11-22T13:20:22;32.50;;;17.57;;
6832;SDS011;3454;42.654;23.378;2023-11-22T13:22:48;30.40;;;17.50;;
6832;SDS011;3454;42.654;23.378;2023-11-22T13:25:15;29.07;;;19.50;;
6832;SDS011;3454;42.654;23.378;2023-11-22T13:27:47;28.43;;;18.23;;
6832;SDS011;3454;42.654;23.378;2023-11-22T13:30:17;27.50;;;18.63;;
6832;SDS011;3454;42.654;23.378;2023-11-22T13:32:48;44.73;;;23.63;;
6832;SDS011;3454;42.654;23.378;2023-11-22T13:35:14;27.57;;;17.93;;
6832;SDS011;3454;42.654;23.378;2023-11-22T13:37:43;23.77;;;16.00;;
6832;SDS011;3454;42.654;23.378;2023-11-22T13:40:16;26.67;;;17.10;;
6832;SDS011;3454;42.654;23.378;2023-11-22T13:42:47;23.20;;;16.10;;
6832;SDS011;3454;42.654;23.378;2023-11-22T13:45:15;34.27;;;21.33;;
6832;SDS011;3454;42.654;23.378;2023-11-22T13:47:45;35.00;;;23.77;;
6832;SDS011;3454;42.654;23.378;2023-11-22T13:50:16;33.77;;;21.83;;
6832;SDS011;3454;42.654;23.378;2023-11-22T13:52:50;29.73;;;18.03;;
6832;SDS011;3454;42.654;23.378;2023-11-22T13:55:17;26.47;;;16.30;;
6832;SDS011;3454;42.654;23.378;2023-11-22T13:57:48;25.07;;;16.00;;
6832;SDS011;3454;42.654;23.378;2023-11-22T14:00:33;24.57;;;14.97;;
6832;SDS011;3454;42.654;23.378;2023-11-22T14:03:07;20.03;;;14.07;;
6832;SDS011;3454;42.654;23.378;2023-11-22T14:05:33;25.47;;;17.27;;
6832;SDS011;3454;42.654;23.378;2023-11-22T14:08:03;27.70;;;16.27;;
6832;SDS011;3454;42.654;23.378;2023-11-22T14:10:31;25.80;;;16.17;;
6832;SDS011;3454;42.654;23.378;2023-11-22T14:12:56;23.50;;;15.47;;
6832;SDS011;3454;42.654;23.378;2023-11-22T14:15:25;24.80;;;15.77;;
6832;SDS011;3454;42.654;23.378;2023-11-22T14:17:55;21.67;;;14.53;;
6832;SDS011;3454;42.654;23.378;2023-11-22T14:20:21;25.40;;;16.97;;
6832;SDS011;3454;42.654;23.378;2023-11-22T14:22:47;22.37;;;15.10;;
6832;SDS011;3454;42.654;23.378;2023-11-22T14:25:13;27.77;;;16.17;;
6832;SDS011;3454;42.654;23.378;2023-11-22T14:27:44;29.13;;;15.00;;
6832;SDS011;3454;42.654;23.378;2023-11-22T14:30:11;25.20;;;15.40;;
6832;SDS011;3454;42.654;23.378;2023-11-22T14:32:42;21.30;;;14.60;;
6832;SDS011;3454;42.654;23.378;2023-11-22T14:35:08;24.53;;;14.60;;
6832;SDS011;3454;42.654;23.378;2023-11-22T14:37:35;20.80;;;13.23;;